En poursuivant votre navigation sur ce site, vous acceptez l'utilisation de cookies pour vous proposer des contenus et services adaptés. Mentions légales.
  

21/02/2019  Mise à jour des tableaux d'analyses décadaires : rubrique climatologie
01/02/2019  Mise à jour des tableaux d'analyses décadaires, mensuelles et annuelles : rubrique climatologie
01/02/2020 Mise en ligne de la synthèse climatologique de Janvier 2020 : 
CLIQUEZ ICI   

NOAA COMPLET DU MOIS

Si l'entête du tableau ne s'affiche pas correctement, => actualisez la page (F5 avec Internet Explorer, Chrome...).
Utilisez l'ascenseur sur la droite des lignes du tableau pour faire défiler verticalement les jours du mois.

TABLEAU DES DONNEES COMPLETES NOAA de DECEMBRE 2019

DATE TEMPERATURE
sous abri
TEMPARATURE 
au sol
VENT  et  Indice de Refroidissement Eolien  PRECIPITATIONS (en mm/m2)
et Intensité
PRESSION ATMOSPHERIQUE (en hPa) HUMIDITE de l'AIR RADIATIONS SOLAIRES (en W/m2)
Mini Moy. Maxi Mini Moy. Maxi Moyen Rafale I.R.E.
Minii
Précip. jour Cumul mois Intensité Maxi Mini Moy. Maxi Mini Moy. Maxi Pic maxi du jour Total jour
01/12/19 5.3° 7.1° 9.3° 2.8° 6.8° 10.6° 2.1km/h dir SE 20.9km/h dir E 3.9° 16.4 16.4 6mm/h 1011.4 1014 1016.9 86% 94.5% 97% 269 9 519
02/12/19 4.5° 7.3° 4.2° 7.2° 12.4km/h dir ONO 33.8km/h dir N -2.9° 0.2 16.6 1016.9 1021.3 1024.5 87% 92% 97% 134 4 372
03/12/19 -2.8° 0.1° 4.3° -4.4° -1.2° 5.6° 2.7km/h dir ESE 19.3km/h dir N -3.9° 0 16.6 1023.4 1025.1 1027 80% 90.7% 95% 417 17 577
04/12/19 -4.2° -0.7° 6.4° -6.1° -1.4° 7.8° 1.3km/h dir ESE 8km/h dir N -4.2° 0.2 16.8 1019.3 1021 1023.4 76% 93% 96% 343 17 112
05/12/19 -2.8° -0.9° 1.1° -2.8° -0.9° 1.7° 0.6km/h dir ONO 8km/h dir ONO -3.5° 0.2 17 1021.6 1024 1025.7 96% 96.3% 97% 137 7 165
06/12/19 -2.4° 2.5° 10.2° -3.9° 1.7° 10.6° 2.4km/h dir SE 14.5km/h dir SE -3.2° 0 17 1019.8 1022.5 1025.2 73% 91.9% 97% 345 17 312
07/12/19 6.2° 8.2° 11.5° 7.6° 12.8° 1.8km/h dir SE 14.5km/h dir ESE 4.7° 0.2 17.2 1019.7 1021.2 1022.2 81% 88.3% 96% 390 8 556
08/12/19 7.4° 9.8° 13.8° 5.6° 9.3° 13.3° 7.6km/h dir SE 33.8km/h dir ESE 6.8° 1.8 19 2.4mm/h 1012.5 1017.1 1021.7 66% 84.6% 96% 473 14 795
09/12/19 6.3° 9.7° 7.2° 8.9° 9.7km/h dir S 40.2km/h dir O 3.7° 0.8 19.8 1011.6 1014.8 1023.6 69% 82.3% 89% 163 5 084
10/12/19 -0.3° 3.9° 7.4° -2.8° 2.6° 8.9° 5.6km/h dir ONO 25.7km/h dir O -2.4° 0 19.8 1022 1026.3 1029.5 68% 84.5% 94% 408 17 480
11/12/19 0.3° 3.7° 6.4° -1.1° 6.1° 5km/h dir SE 25.7km/h dir S -0.9° 10 29.8 4mm/h 1010.3 1015.4 1021.9 77% 90.7% 95% 63 2 529
12/12/19 2.3° 4.8° 7.7° 1.1° 4.3° 8.3° 9.2km/h dir SE 45.1km/h dir SSE -2° 7.4 37.2 6.8mm/h 993.8 1005.8 1011.7 64% 85.1% 95% 404 14 810
13/12/19 3.7° 6.3° 10.1° 2.2° 5.8° 10° 11.3km/h dir SSE 57.9km/h dir O 13 50.2 18.4mm/h 983.7 993.2 1000.6 65% 87.8% 95% 454 11 786
14/12/19 5.1° 9.2° 12.1° 8.7° 11.7° 11.1km/h dir SSE 41.8km/h dir SSE 1.5° 5.2 55.4 5.2mm/h 998.8 1005.6 1009.1 73% 88.8% 95% 244 7 448
15/12/19 11.6° 12.7° 15.7° 10.6° 12° 15.6° 10.1km/h dir SSE 35.4km/h dir SSE 9.7° 0.2 55.6 1007.6 1009.2 1010.4 74% 82.4% 87% 359 10 078
16/12/19 11° 13° 14.5° 9.4° 12° 13.9° 12.7km/h dir SSE 57.9km/h dir SE 9.9° 0 55.6 1003.2 1006.7 1010.3 68% 74.3% 83% 123 5 681
17/12/19 11.4° 13.8° 16.4° 8.3° 12.5° 15° 8.4km/h dir SE 33.8km/h dir SSE 11° 0 55.6 1002.8 1006.2 1012.4 62% 69.4% 80% 132 5 945
18/12/19 10.2° 12.9° 16.7° 8.9° 11.9° 16.7° 5.1km/h dir SE 24.1km/h dir ESE 9.8° 5.2 60.8 3.8mm/h 1012.4 1015.2 1016.8 70% 85.7% 97% 323 13 162
19/12/19 8.6° 13.2° 16.8° 11.9° 17.8° 11.1km/h dir SE 46.7km/h dir SE 8.3° 0 60.8 1001.1 1009.9 1015.2 64% 76.4% 91% 329 15 127
20/12/19 12.6° 17.1° 11.6° 16.1° 13.8km/h dir SSE 88.5km/h dir SSE 6.1° 17.4 78.2 51.8mm/h 989.5 994.2 1001 55% 77.3% 95% 44 1 478
21/12/19 5.9° 9.2° 12.7° 3.3° 8.5° 13.3° 8.2km/h dir SE 59.5km/h dir SSE 5.3° 9.6 87.8 16mm/h 989.1 993.8 998.6 66% 87.2% 96% 397 14 021
22/12/19 7.1° 9.3° 11.9° 6.7° 8.7° 12.2° 10.5km/h dir S 46.7km/h dir SO 5.2° 4.2 92 4.2mm/h 988.1 996.4 1007 64% 82.5% 92% 376 7 404
23/12/19 5.7° 7.9° 10.9° 3.3° 7.2° 11.1° 4.3km/h dir SO 24.1km/h dir SO 4.6° 1.8 93.8 9.4mm/h 1007.1 1016.9 1023.4 76% 86.9% 92% 366 7 857
24/12/19 5.8° 7.9° 11.3° 4.4° 7.2° 11.7° 6.4km/h dir SSE 30.6km/h dir SSE 4.7° 6.6 100.4 9.8mm/h 1019.4 1021.1 1023.6 81% 91.6% 96% 197 5 230
25/12/19 1.9° 6.4° 10.2° -0.6° 5.5° 11.1° 2.3km/h dir SE 12.9km/h dir ESE 1.9° 0.2 100.6 1023.2 1024.7 1026 82% 92.5% 97% 186 7 708
26/12/19 1.7° 4.7° 7.6° 1.7° 4.6° 7.2° 3.5km/h dir SE 16.1km/h dir E 0.1° 0.4 101 1023.4 1025.8 1028.7 92% 95.2% 97% 294 5 992
27/12/19 7.1° 8.2° 11.2° 6.7° 7.9° 14.4° 5.5km/h dir SSE 24.1km/h dir SSE 5.5° 15.6 116.6 7mm/h 1024.1 1027.7 1032 89% 94.8% 96% 378 7 817
28/12/19 3.3° 6.6° 7.7° 1.7° 6.3° 7.2° 6.1km/h dir ONO 22.5km/h dir NNE 1.8° 0 116.6 1031.9 1033.6 1035.2 87% 91.5% 95% 114 5 486
29/12/19 2.2° 3.7° 2.2° 3.9° 2.6km/h dir O 11.3km/h dir ENE 0.4° 0 116.6 1034.4 1035.1 1036.4 91% 93.2% 95% 88 4 603
30/12/19 -0.7° 2.3° 5.2° -2.2° 1.9° 7.8° 1.9km/h dir S 9.7km/h dir S -1.8° 0 116.6 1032.8 1034 1035.2 84% 91.6% 95% 373 10 755
31/12/19 -2.7° -0.6° 1.5° -3.9° -0.8° 2.2° 1.9km/h dir ONO 11.3km/h dir N -4.5° 0 116.6 1032.7 1033.3 1034.6 95% 95.8% 97% 197 8 479

RETOUR ACCUEIL


Date de création : 02/01/2020 : 10:43
Catégorie : - MOIS PASSES - DECEMBRE 2019
Page lue 57 fois


Réactions à cet article


Personne n'a encore laissé de commentaire.
Soyez donc le premier !